sensor_id;sensor_type;location;lat;lon;timestamp;temperature;humidity
38488;DHT22;57384;51.986;4.458;2024-01-30T01:41:32;9.10;87.50
38488;DHT22;57384;51.986;4.458;2024-01-30T01:44:24;9.10;87.30
38488;DHT22;57384;51.986;4.458;2024-01-30T01:47:41;9.10;87.40
38488;DHT22;57384;51.986;4.458;2024-01-30T01:50:26;9.10;87.70
38488;DHT22;57384;51.986;4.458;2024-01-30T02:00:00;9.20;87.70
38488;DHT22;57384;51.986;4.458;2024-01-30T02:02:50;9.20;87.60
38488;DHT22;57384;51.986;4.458;2024-01-30T02:05:44;9.20;87.70
38488;DHT22;57384;51.986;4.458;2024-01-30T02:11:12;9.30;87.80
38488;DHT22;57384;51.986;4.458;2024-01-30T02:14:01;9.30;87.80
38488;DHT22;57384;51.986;4.458;2024-01-30T02:48:45;9.40;87.90
38488;DHT22;57384;51.986;4.458;2024-01-30T03:17:35;9.50;88.00
38488;DHT22;57384;51.986;4.458;2024-01-30T04:20:55;9.60;87.90
38488;DHT22;57384;51.986;4.458;2024-01-30T04:23:48;9.70;87.70
38488;DHT22;57384;51.986;4.458;2024-01-30T04:26:36;9.70;87.80
38488;DHT22;57384;51.986;4.458;2024-01-30T04:29:42;9.60;87.80
38488;DHT22;57384;51.986;4.458;2024-01-30T04:32:29;9.60;88.00
38488;DHT22;57384;51.986;4.458;2024-01-30T04:35:31;9.70;88.00
38488;DHT22;57384;51.986;4.458;2024-01-30T04:38:22;9.70;88.00
38488;DHT22;57384;51.986;4.458;2024-01-30T04:41:09;9.70;88.00
38488;DHT22;57384;51.986;4.458;2024-01-30T04:44:19;9.70;87.90
38488;DHT22;57384;51.986;4.458;2024-01-30T04:47:17;9.70;88.20
38488;DHT22;57384;51.986;4.458;2024-01-30T04:50:07;9.80;87.90
38488;DHT22;57384;51.986;4.458;2024-01-30T04:52:57;9.80;88.00
38488;DHT22;57384;51.986;4.458;2024-01-30T04:55:44;9.80;88.00
38488;DHT22;57384;51.986;4.458;2024-01-30T04:58:36;9.80;88.00
38488;DHT22;57384;51.986;4.458;2024-01-30T05:04:41;9.80;88.00
38488;DHT22;57384;51.986;4.458;2024-01-30T05:07:26;9.80;88.00
38488;DHT22;57384;51.986;4.458;2024-01-30T05:10:10;9.80;88.00
38488;DHT22;57384;51.986;4.458;2024-01-30T05:13:15;9.80;88.50
38488;DHT22;57384;51.986;4.458;2024-01-30T05:16:10;9.80;88.00
38488;DHT22;57384;51.986;4.458;2024-01-30T05:18:54;9.90;88.00
38488;DHT22;57384;51.986;4.458;2024-01-30T05:21:41;9.90;88.00
38488;DHT22;57384;51.986;4.458;2024-01-30T05:24:37;9.90;88.00
38488;DHT22;57384;51.986;4.458;2024-01-30T05:27:48;9.90;88.00
38488;DHT22;57384;51.986;4.458;2024-01-30T05:30:35;9.90;88.10
38488;DHT22;57384;51.986;4.458;2024-01-30T05:33:25;9.90;88.00
38488;DHT22;57384;51.986;4.458;2024-01-30T05:36:12;9.90;88.00
38488;DHT22;57384;51.986;4.458;2024-01-30T05:38:59;9.90;88.00
38488;DHT22;57384;51.986;4.458;2024-01-30T05:41:55;10.00;88.10
38488;DHT22;57384;51.986;4.458;2024-01-30T05:44:42;10.00;88.10
38488;DHT22;57384;51.986;4.458;2024-01-30T06:02:10;10.00;88.00
38488;DHT22;57384;51.986;4.458;2024-01-30T06:05:35;10.00;88.00
38488;DHT22;57384;51.986;4.458;2024-01-30T06:16:44;10.00;88.00
38488;DHT22;57384;51.986;4.458;2024-01-30T06:23:36;10.00;88.00
38488;DHT22;57384;51.986;4.458;2024-01-30T06:26:22;10.00;87.90
38488;DHT22;57384;51.986;4.458;2024-01-30T06:29:06;10.10;88.00
38488;DHT22;57384;51.986;4.458;2024-01-30T06:31:53;10.10;88.00
38488;DHT22;57384;51.986;4.458;2024-01-30T06:34:38;10.10;88.10
38488;DHT22;57384;51.986;4.458;2024-01-30T06:37:26;10.10;88.00
38488;DHT22;57384;51.986;4.458;2024-01-30T06:40:13;10.10;88.00
38488;DHT22;57384;51.986;4.458;2024-01-30T06:42:58;10.10;88.00
38488;DHT22;57384;51.986;4.458;2024-01-30T06:45:42;10.20;88.00
38488;DHT22;57384;51.986;4.458;2024-01-30T06:48:29;10.20;88.00
38488;DHT22;57384;51.986;4.458;2024-01-30T06:51:23;10.20;88.10
38488;DHT22;57384;51.986;4.458;2024-01-30T06:54:08;10.20;88.10
38488;DHT22;57384;51.986;4.458;2024-01-30T06:56:53;10.20;88.00
38488;DHT22;57384;51.986;4.458;2024-01-30T06:59:38;10.20;88.00
38488;DHT22;57384;51.986;4.458;2024-01-30T07:02:22;10.30;88.00
38488;DHT22;57384;51.986;4.458;2024-01-30T07:05:09;10.30;88.00
38488;DHT22;57384;51.986;4.458;2024-01-30T07:07:54;10.30;88.00
38488;DHT22;57384;51.986;4.458;2024-01-30T07:10:38;10.30;87.80
38488;DHT22;57384;51.986;4.458;2024-01-30T07:13:34;10.30;87.80
38488;DHT22;57384;51.986;4.458;2024-01-30T07:16:20;10.30;88.00
38488;DHT22;57384;51.986;4.458;2024-01-30T07:19:04;10.30;87.80
38488;DHT22;57384;51.986;4.458;2024-01-30T07:22:03;10.30;87.80
38488;DHT22;57384;51.986;4.458;2024-01-30T07:24:56;10.30;87.90
38488;DHT22;57384;51.986;4.458;2024-01-30T07:27:43;10.30;88.00
38488;DHT22;57384;51.986;4.458;2024-01-30T07:30:29;10.40;88.00
38488;DHT22;57384;51.986;4.458;2024-01-30T07:33:22;10.40;88.00
38488;DHT22;57384;51.986;4.458;2024-01-30T07:36:11;10.40;88.00
38488;DHT22;57384;51.986;4.458;2024-01-30T07:38:55;10.40;88.00
38488;DHT22;57384;51.986;4.458;2024-01-30T07:41:39;10.50;88.00
38488;DHT22;57384;51.986;4.458;2024-01-30T07:44:26;10.50;88.00
38488;DHT22;57384;51.986;4.458;2024-01-30T07:47:20;10.50;88.00
38488;DHT22;57384;51.986;4.458;2024-01-30T07:50:04;10.50;88.00
38488;DHT22;57384;51.986;4.458;2024-01-30T07:52:59;10.50;88.00
38488;DHT22;57384;51.986;4.458;2024-01-30T07:55:43;10.50;88.10
38488;DHT22;57384;51.986;4.458;2024-01-30T07:58:32;10.60;88.00
38488;DHT22;57384;51.986;4.458;2024-01-30T08:01:16;10.60;88.10
38488;DHT22;57384;51.986;4.458;2024-01-30T08:04:00;10.60;88.00
38488;DHT22;57384;51.986;4.458;2024-01-30T08:06:46;10.60;88.00
38488;DHT22;57384;51.986;4.458;2024-01-30T08:09:33;10.60;88.00
38488;DHT22;57384;51.986;4.458;2024-01-30T08:12:17;10.60;88.10
38488;DHT22;57384;51.986;4.458;2024-01-30T08:15:02;10.60;87.90
38488;DHT22;57384;51.986;4.458;2024-01-30T08:17:47;10.60;87.90
38488;DHT22;57384;51.986;4.458;2024-01-30T08:20:31;10.60;88.00
38488;DHT22;57384;51.986;4.458;2024-01-30T08:23:15;10.70;88.10
38488;DHT22;57384;51.986;4.458;2024-01-30T08:25:59;10.70;88.10
38488;DHT22;57384;51.986;4.458;2024-01-30T08:28:47;10.70;88.10
38488;DHT22;57384;51.986;4.458;2024-01-30T08:31:31;10.70;88.10
38488;DHT22;57384;51.986;4.458;2024-01-30T08:34:15;10.70;88.00
38488;DHT22;57384;51.986;4.458;2024-01-30T08:36:59;10.80;88.10
38488;DHT22;57384;51.986;4.458;2024-01-30T08:39:44;10.80;88.10
38488;DHT22;57384;51.986;4.458;2024-01-30T08:42:28;10.80;88.10
38488;DHT22;57384;51.986;4.458;2024-01-30T08:45:12;10.80;88.10
38488;DHT22;57384;51.986;4.458;2024-01-30T08:47:56;10.80;88.00
38488;DHT22;57384;51.986;4.458;2024-01-30T08:50:43;10.90;88.10
38488;DHT22;57384;51.986;4.458;2024-01-30T08:53:27;10.80;88.00
38488;DHT22;57384;51.986;4.458;2024-01-30T08:56:11;10.90;88.10
38488;DHT22;57384;51.986;4.458;2024-01-30T08:58:56;10.90;88.00
38488;DHT22;57384;51.986;4.458;2024-01-30T09:01:40;10.90;88.00
38488;DHT22;57384;51.986;4.458;2024-01-30T09:04:24;10.90;88.00
38488;DHT22;57384;51.986;4.458;2024-01-30T09:07:09;10.90;87.90
38488;DHT22;57384;51.986;4.458;2024-01-30T09:09:53;10.90;87.90
38488;DHT22;57384;51.986;4.458;2024-01-30T09:12:37;11.00;88.00
38488;DHT22;57384;51.986;4.458;2024-01-30T09:15:21;11.00;87.90
38488;DHT22;57384;51.986;4.458;2024-01-30T09:18:07;11.00;87.90
38488;DHT22;57384;51.986;4.458;2024-01-30T09:20:51;11.00;87.80
38488;DHT22;57384;51.986;4.458;2024-01-30T09:23:35;11.10;87.90
38488;DHT22;57384;51.986;4.458;2024-01-30T09:26:19;11.00;87.80
38488;DHT22;57384;51.986;4.458;2024-01-30T09:29:03;11.10;87.80
38488;DHT22;57384;51.986;4.458;2024-01-30T09:31:47;11.10;87.80
38488;DHT22;57384;51.986;4.458;2024-01-30T09:34:32;11.10;87.70
38488;DHT22;57384;51.986;4.458;2024-01-30T09:37:16;11.10;87.70
38488;DHT22;57384;51.986;4.458;2024-01-30T09:40:01;11.20;87.70
38488;DHT22;57384;51.986;4.458;2024-01-30T09:42:50;11.10;87.60
38488;DHT22;57384;51.986;4.458;2024-01-30T09:45:35;11.10;87.60
38488;DHT22;57384;51.986;4.458;2024-01-30T09:48:22;11.10;87.60
38488;DHT22;57384;51.986;4.458;2024-01-30T09:51:08;11.20;87.60
38488;DHT22;57384;51.986;4.458;2024-01-30T09:53:53;11.20;87.60
38488;DHT22;57384;51.986;4.458;2024-01-30T09:56:38;11.20;87.60
38488;DHT22;57384;51.986;4.458;2024-01-30T09:59:22;11.20;87.50
38488;DHT22;57384;51.986;4.458;2024-01-30T10:02:07;11.20;87.50
38488;DHT22;57384;51.986;4.458;2024-01-30T10:04:51;11.20;87.50
38488;DHT22;57384;51.986;4.458;2024-01-30T10:07:39;11.20;87.50
38488;DHT22;57384;51.986;4.458;2024-01-30T10:10:47;11.20;87.40
38488;DHT22;57384;51.986;4.458;2024-01-30T10:13:47;11.20;87.40
38488;DHT22;57384;51.986;4.458;2024-01-30T10:16:31;11.20;87.30
38488;DHT22;57384;51.986;4.458;2024-01-30T10:19:18;11.20;87.40
38488;DHT22;57384;51.986;4.458;2024-01-30T10:22:03;11.30;87.40
38488;DHT22;57384;51.986;4.458;2024-01-30T10:24:48;11.20;87.30
38488;DHT22;57384;51.986;4.458;2024-01-30T10:27:33;11.20;87.30
38488;DHT22;57384;51.986;4.458;2024-01-30T10:30:18;11.20;87.30
38488;DHT22;57384;51.986;4.458;2024-01-30T10:33:02;11.30;87.30
38488;DHT22;57384;51.986;4.458;2024-01-30T10:35:47;11.30;87.20
38488;DHT22;57384;51.986;4.458;2024-01-30T10:38:34;11.20;87.10
38488;DHT22;57384;51.986;4.458;2024-01-30T10:41:30;11.30;87.20
38488;DHT22;57384;51.986;4.458;2024-01-30T10:44:29;11.30;87.10
38488;DHT22;57384;51.986;4.458;2024-01-30T10:47:21;11.20;87.20
38488;DHT22;57384;51.986;4.458;2024-01-30T10:50:17;11.20;87.20
38488;DHT22;57384;51.986;4.458;2024-01-30T10:53:05;11.20;87.30
38488;DHT22;57384;51.986;4.458;2024-01-30T10:55:51;11.20;87.30
38488;DHT22;57384;51.986;4.458;2024-01-30T10:59:01;11.20;87.30
38488;DHT22;57384;51.986;4.458;2024-01-30T11:01:54;11.20;87.20
38488;DHT22;57384;51.986;4.458;2024-01-30T11:04:59;11.20;87.30
38488;DHT22;57384;51.986;4.458;2024-01-30T11:07:43;11.20;87.20
38488;DHT22;57384;51.986;4.458;2024-01-30T11:13:40;11.20;87.30
38488;DHT22;57384;51.986;4.458;2024-01-30T11:16:30;11.20;87.20
38488;DHT22;57384;51.986;4.458;2024-01-30T11:19:30;11.20;87.20
38488;DHT22;57384;51.986;4.458;2024-01-30T11:22:22;11.20;87.20
38488;DHT22;57384;51.986;4.458;2024-01-30T11:25:11;11.20;87.30
38488;DHT22;57384;51.986;4.458;2024-01-30T11:28:02;11.20;87.30
38488;DHT22;57384;51.986;4.458;2024-01-30T11:31:02;11.20;87.30
38488;DHT22;57384;51.986;4.458;2024-01-30T11:37:12;11.20;87.20
38488;DHT22;57384;51.986;4.458;2024-01-30T11:40:00;11.20;87.20
38488;DHT22;57384;51.986;4.458;2024-01-30T11:42:47;11.20;87.20
38488;DHT22;57384;51.986;4.458;2024-01-30T11:45:35;11.20;87.10
38488;DHT22;57384;51.986;4.458;2024-01-30T11:48:30;11.20;87.60
38488;DHT22;57384;51.986;4.458;2024-01-30T11:51:14;11.20;87.00
38488;DHT22;57384;51.986;4.458;2024-01-30T11:54:02;11.20;87.50
38488;DHT22;57384;51.986;4.458;2024-01-30T11:56:52;11.20;86.90
38488;DHT22;57384;51.986;4.458;2024-01-30T11:59:42;11.20;86.90
38488;DHT22;57384;51.986;4.458;2024-01-30T12:02:27;11.20;86.80
38488;DHT22;57384;51.986;4.458;2024-01-30T12:05:20;11.20;86.90
38488;DHT22;57384;51.986;4.458;2024-01-30T12:08:08;11.20;86.80
38488;DHT22;57384;51.986;4.458;2024-01-30T12:11:06;11.20;86.80
38488;DHT22;57384;51.986;4.458;2024-01-30T12:13:54;11.20;86.70
38488;DHT22;57384;51.986;4.458;2024-01-30T12:16:38;11.20;86.70
38488;DHT22;57384;51.986;4.458;2024-01-30T12:19:29;11.20;86.70
38488;DHT22;57384;51.986;4.458;2024-01-30T12:22:13;11.30;86.70
38488;DHT22;57384;51.986;4.458;2024-01-30T12:24:57;11.30;87.00
38488;DHT22;57384;51.986;4.458;2024-01-30T12:27:46;11.20;86.60
38488;DHT22;57384;51.986;4.458;2024-01-30T12:30:34;11.20;86.60
38488;DHT22;57384;51.986;4.458;2024-01-30T12:33:18;11.30;86.70
38488;DHT22;57384;51.986;4.458;2024-01-30T12:36:05;11.20;86.60
38488;DHT22;57384;51.986;4.458;2024-01-30T12:38:51;11.30;86.60
38488;DHT22;57384;51.986;4.458;2024-01-30T12:41:36;11.30;86.60
38488;DHT22;57384;51.986;4.458;2024-01-30T12:44:28;11.20;86.50
38488;DHT22;57384;51.986;4.458;2024-01-30T12:47:16;11.30;86.60
38488;DHT22;57384;51.986;4.458;2024-01-30T12:50:04;11.30;86.60
38488;DHT22;57384;51.986;4.458;2024-01-30T12:52:51;11.30;86.60
38488;DHT22;57384;51.986;4.458;2024-01-30T12:55:35;11.30;86.60
38488;DHT22;57384;51.986;4.458;2024-01-30T12:58:19;11.30;86.60
38488;DHT22;57384;51.986;4.458;2024-01-30T13:01:07;11.20;86.50
38488;DHT22;57384;51.986;4.458;2024-01-30T13:07:33;11.20;86.50
38488;DHT22;57384;51.986;4.458;2024-01-30T13:13:48;11.20;87.10
38488;DHT22;57384;51.986;4.458;2024-01-30T13:16:40;11.20;86.60
38488;DHT22;57384;51.986;4.458;2024-01-30T13:19:35;11.20;86.60
38488;DHT22;57384;51.986;4.458;2024-01-30T13:30:03;11.20;86.70
38488;DHT22;57384;51.986;4.458;2024-01-30T13:33:01;11.20;86.70
38488;DHT22;57384;51.986;4.458;2024-01-30T13:36:06;11.30;86.70
38488;DHT22;57384;51.986;4.458;2024-01-30T13:38:49;11.20;86.70
38488;DHT22;57384;51.986;4.458;2024-01-30T13:41:38;11.20;86.70
38488;DHT22;57384;51.986;4.458;2024-01-30T13:44:25;11.20;86.70
38488;DHT22;57384;51.986;4.458;2024-01-30T13:47:09;11.20;86.70
38488;DHT22;57384;51.986;4.458;2024-01-30T13:49:57;11.20;86.80
38488;DHT22;57384;51.986;4.458;2024-01-30T13:52:43;11.20;86.70
38488;DHT22;57384;51.986;4.458;2024-01-30T13:55:33;11.20;86.70
38488;DHT22;57384;51.986;4.458;2024-01-30T13:58:30;11.20;86.70
38488;DHT22;57384;51.986;4.458;2024-01-30T14:01:17;11.20;86.70
38488;DHT22;57384;51.986;4.458;2024-01-30T14:04:12;11.20;86.70
38488;DHT22;57384;51.986;4.458;2024-01-30T14:06:58;11.20;86.70
38488;DHT22;57384;51.986;4.458;2024-01-30T14:09:47;11.10;86.70
38488;DHT22;57384;51.986;4.458;2024-01-30T14:12:31;11.10;86.70
38488;DHT22;57384;51.986;4.458;2024-01-30T14:15:18;11.10;86.70
38488;DHT22;57384;51.986;4.458;2024-01-30T14:18:05;11.10;86.60
38488;DHT22;57384;51.986;4.458;2024-01-30T14:20:57;11.10;86.60
38488;DHT22;57384;51.986;4.458;2024-01-30T14:23:41;11.10;86.60
38488;DHT22;57384;51.986;4.458;2024-01-30T14:26:29;11.10;86.60
38488;DHT22;57384;51.986;4.458;2024-01-30T14:29:17;11.10;86.70
38488;DHT22;57384;51.986;4.458;2024-01-30T14:32:06;11.00;86.60
38488;DHT22;57384;51.986;4.458;2024-01-30T14:34:57;11.00;86.60
38488;DHT22;57384;51.986;4.458;2024-01-30T14:37:41;11.00;86.60
38488;DHT22;57384;51.986;4.458;2024-01-30T14:40:26;11.00;86.60
38488;DHT22;57384;51.986;4.458;2024-01-30T14:43:12;11.00;86.70
38488;DHT22;57384;51.986;4.458;2024-01-30T14:45:57;11.00;86.60
38488;DHT22;57384;51.986;4.458;2024-01-30T14:48:41;10.90;86.50
38488;DHT22;57384;51.986;4.458;2024-01-30T14:51:27;10.90;86.50
38488;DHT22;57384;51.986;4.458;2024-01-30T14:54:11;10.90;86.60
38488;DHT22;57384;51.986;4.458;2024-01-30T14:56:58;10.90;86.70
38488;DHT22;57384;51.986;4.458;2024-01-30T14:59:42;10.80;86.60
38488;DHT22;57384;51.986;4.458;2024-01-30T15:02:26;10.80;86.60
38488;DHT22;57384;51.986;4.458;2024-01-30T15:05:11;10.80;86.60
38488;DHT22;57384;51.986;4.458;2024-01-30T15:07:57;10.80;86.60
38488;DHT22;57384;51.986;4.458;2024-01-30T15:10:41;10.80;86.60
38488;DHT22;57384;51.986;4.458;2024-01-30T15:13:25;10.80;86.60
38488;DHT22;57384;51.986;4.458;2024-01-30T15:16:09;10.80;86.60
38488;DHT22;57384;51.986;4.458;2024-01-30T15:18:56;10.80;86.60
38488;DHT22;57384;51.986;4.458;2024-01-30T15:21:41;10.70;86.50
38488;DHT22;57384;51.986;4.458;2024-01-30T15:24:25;10.80;86.60
38488;DHT22;57384;51.986;4.458;2024-01-30T15:27:09;10.70;86.50
38488;DHT22;57384;51.986;4.458;2024-01-30T15:29:55;10.80;86.60
38488;DHT22;57384;51.986;4.458;2024-01-30T15:32:43;10.70;86.50
38488;DHT22;57384;51.986;4.458;2024-01-30T15:35:33;10.60;86.50
38488;DHT22;57384;51.986;4.458;2024-01-30T15:38:19;10.60;86.50
38488;DHT22;57384;51.986;4.458;2024-01-30T15:41:07;10.70;86.60
38488;DHT22;57384;51.986;4.458;2024-01-30T15:43:51;10.60;86.50
38488;DHT22;57384;51.986;4.458;2024-01-30T15:46:35;10.60;86.50
38488;DHT22;57384;51.986;4.458;2024-01-30T15:49:21;10.60;86.60
38488;DHT22;57384;51.986;4.458;2024-01-30T15:52:05;10.60;86.60
38488;DHT22;57384;51.986;4.458;2024-01-30T15:54:49;10.50;87.10
38488;DHT22;57384;51.986;4.458;2024-01-30T15:57:33;10.60;86.60
38488;DHT22;57384;51.986;4.458;2024-01-30T16:00:17;10.50;86.50
38488;DHT22;57384;51.986;4.458;2024-01-30T16:03:01;10.50;86.50
38488;DHT22;57384;51.986;4.458;2024-01-30T16:05:45;10.50;86.50
38488;DHT22;57384;51.986;4.458;2024-01-30T16:08:30;10.50;86.50
38488;DHT22;57384;51.986;4.458;2024-01-30T16:11:16;10.40;86.50
38488;DHT22;57384;51.986;4.458;2024-01-30T16:14:01;10.40;86.50
38488;DHT22;57384;51.986;4.458;2024-01-30T16:16:45;10.40;86.50
38488;DHT22;57384;51.986;4.458;2024-01-30T16:19:29;10.40;86.50
38488;DHT22;57384;51.986;4.458;2024-01-30T16:22:14;10.40;86.50
38488;DHT22;57384;51.986;4.458;2024-01-30T16:24:59;10.40;86.50
38488;DHT22;57384;51.986;4.458;2024-01-30T16:27:43;10.40;86.50
38488;DHT22;57384;51.986;4.458;2024-01-30T16:30:27;10.30;86.50
38488;DHT22;57384;51.986;4.458;2024-01-30T16:33:11;10.30;86.50
38488;DHT22;57384;51.986;4.458;2024-01-30T16:35:55;10.30;86.50
38488;DHT22;57384;51.986;4.458;2024-01-30T16:38:39;10.30;86.50
38488;DHT22;57384;51.986;4.458;2024-01-30T16:41:24;10.20;86.40
38488;DHT22;57384;51.986;4.458;2024-01-30T16:44:08;10.20;86.40
38488;DHT22;57384;51.986;4.458;2024-01-30T16:46:52;10.20;86.50
38488;DHT22;57384;51.986;4.458;2024-01-30T16:49:39;10.20;86.50
38488;DHT22;57384;51.986;4.458;2024-01-30T16:52:23;10.20;86.50
38488;DHT22;57384;51.986;4.458;2024-01-30T16:55:07;10.10;86.40
38488;DHT22;57384;51.986;4.458;2024-01-30T16:57:51;10.20;86.50
38488;DHT22;57384;51.986;4.458;2024-01-30T17:00:37;10.10;87.00
38488;DHT22;57384;51.986;4.458;2024-01-30T17:03:22;10.10;86.50
38488;DHT22;57384;51.986;4.458;2024-01-30T17:06:06;10.10;87.00
38488;DHT22;57384;51.986;4.458;2024-01-30T17:08:50;10.00;86.40
38488;DHT22;57384;51.986;4.458;2024-01-30T17:11:35;10.10;86.50
38488;DHT22;57384;51.986;4.458;2024-01-30T17:14:20;10.00;86.50
38488;DHT22;57384;51.986;4.458;2024-01-30T17:17:04;10.00;86.50
38488;DHT22;57384;51.986;4.458;2024-01-30T17:19:48;10.00;86.50
38488;DHT22;57384;51.986;4.458;2024-01-30T17:22:33;9.90;86.50
38488;DHT22;57384;51.986;4.458;2024-01-30T17:25:17;10.00;86.50
38488;DHT22;57384;51.986;4.458;2024-01-30T17:28:01;9.90;86.50
38488;DHT22;57384;51.986;4.458;2024-01-30T17:30:46;9.90;86.50
38488;DHT22;57384;51.986;4.458;2024-01-30T17:33:31;9.90;86.50
38488;DHT22;57384;51.986;4.458;2024-01-30T17:36:15;9.90;86.50
38488;DHT22;57384;51.986;4.458;2024-01-30T17:38:59;9.80;86.50
38488;DHT22;57384;51.986;4.458;2024-01-30T17:41:45;9.90;86.50
38488;DHT22;57384;51.986;4.458;2024-01-30T17:44:29;9.80;86.50
38488;DHT22;57384;51.986;4.458;2024-01-30T17:47:13;9.80;86.50
38488;DHT22;57384;51.986;4.458;2024-01-30T17:49:57;9.80;86.50
38488;DHT22;57384;51.986;4.458;2024-01-30T17:52:43;9.80;86.50
38488;DHT22;57384;51.986;4.458;2024-01-30T17:55:27;9.80;86.50
38488;DHT22;57384;51.986;4.458;2024-01-30T17:58:11;9.80;86.50
38488;DHT22;57384;51.986;4.458;2024-01-30T18:00:57;9.70;86.50
38488;DHT22;57384;51.986;4.458;2024-01-30T18:03:41;9.70;86.50
38488;DHT22;57384;51.986;4.458;2024-01-30T18:06:25;9.70;86.50
38488;DHT22;57384;51.986;4.458;2024-01-30T18:09:10;9.70;86.60
38488;DHT22;57384;51.986;4.458;2024-01-30T18:11:55;9.70;86.60
38488;DHT22;57384;51.986;4.458;2024-01-30T18:14:39;9.60;86.50
38488;DHT22;57384;51.986;4.458;2024-01-30T18:17:23;9.60;86.50
38488;DHT22;57384;51.986;4.458;2024-01-30T18:20:07;9.60;86.50
38488;DHT22;57384;51.986;4.458;2024-01-30T18:22:54;9.60;86.60
38488;DHT22;57384;51.986;4.458;2024-01-30T18:25:38;9.60;86.50
38488;DHT22;57384;51.986;4.458;2024-01-30T18:28:22;9.60;86.60
38488;DHT22;57384;51.986;4.458;2024-01-30T18:31:11;9.50;86.60
38488;DHT22;57384;51.986;4.458;2024-01-30T18:33:55;9.50;86.50
38488;DHT22;57384;51.986;4.458;2024-01-30T18:36:39;9.60;86.60
38488;DHT22;57384;51.986;4.458;2024-01-30T18:39:23;9.50;86.60
38488;DHT22;57384;51.986;4.458;2024-01-30T18:42:09;9.50;86.50
38488;DHT22;57384;51.986;4.458;2024-01-30T18:44:53;9.50;86.60
38488;DHT22;57384;51.986;4.458;2024-01-30T18:47:46;9.50;86.60
38488;DHT22;57384;51.986;4.458;2024-01-30T18:50:39;9.50;86.60
38488;DHT22;57384;51.986;4.458;2024-01-30T18:53:24;9.40;86.60
38488;DHT22;57384;51.986;4.458;2024-01-30T18:56:14;9.40;86.60
38488;DHT22;57384;51.986;4.458;2024-01-30T18:59:00;9.40;86.60
38488;DHT22;57384;51.986;4.458;2024-01-30T19:01:45;9.40;86.60
38488;DHT22;57384;51.986;4.458;2024-01-30T19:04:30;9.40;86.60
38488;DHT22;57384;51.986;4.458;2024-01-30T19:07:17;9.40;86.60
38488;DHT22;57384;51.986;4.458;2024-01-30T19:10:04;9.40;86.70
38488;DHT22;57384;51.986;4.458;2024-01-30T19:12:52;9.30;86.60
38488;DHT22;57384;51.986;4.458;2024-01-30T19:15:52;9.30;86.60
38488;DHT22;57384;51.986;4.458;2024-01-30T19:18:44;9.30;86.70
38488;DHT22;57384;51.986;4.458;2024-01-30T19:21:33;9.30;86.70
38488;DHT22;57384;51.986;4.458;2024-01-30T19:24:18;9.30;86.70
38488;DHT22;57384;51.986;4.458;2024-01-30T19:27:07;9.20;86.60
38488;DHT22;57384;51.986;4.458;2024-01-30T19:29:52;9.20;86.60
38488;DHT22;57384;51.986;4.458;2024-01-30T19:32:39;9.20;86.60
38488;DHT22;57384;51.986;4.458;2024-01-30T19:35:23;9.20;86.60
38488;DHT22;57384;51.986;4.458;2024-01-30T19:38:08;9.20;86.70
38488;DHT22;57384;51.986;4.458;2024-01-30T19:40:54;9.20;86.60
38488;DHT22;57384;51.986;4.458;2024-01-30T19:43:47;9.20;86.70
38488;DHT22;57384;51.986;4.458;2024-01-30T19:46:43;9.10;86.60
38488;DHT22;57384;51.986;4.458;2024-01-30T19:53:27;9.10;86.70
38488;DHT22;57384;51.986;4.458;2024-01-30T19:56:12;9.10;86.70
38488;DHT22;57384;51.986;4.458;2024-01-30T19:59:01;9.10;86.70
38488;DHT22;57384;51.986;4.458;2024-01-30T20:01:50;9.10;86.70
38488;DHT22;57384;51.986;4.458;2024-01-30T20:04:40;9.10;86.80
38488;DHT22;57384;51.986;4.458;2024-01-30T20:07:34;9.00;86.70
38488;DHT22;57384;51.986;4.458;2024-01-30T20:10:21;9.00;86.70
38488;DHT22;57384;51.986;4.458;2024-01-30T20:13:11;9.00;86.70
38488;DHT22;57384;51.986;4.458;2024-01-30T20:16:05;9.00;86.70
38488;DHT22;57384;51.986;4.458;2024-01-30T20:19:01;9.00;86.80
38488;DHT22;57384;51.986;4.458;2024-01-30T20:21:45;9.00;86.80
38488;DHT22;57384;51.986;4.458;2024-01-30T20:24:32;9.00;86.70
38488;DHT22;57384;51.986;4.458;2024-01-30T20:27:26;8.90;86.70
38488;DHT22;57384;51.986;4.458;2024-01-30T20:30:17;8.90;86.70
38488;DHT22;57384;51.986;4.458;2024-01-30T20:33:09;8.90;86.80
38488;DHT22;57384;51.986;4.458;2024-01-30T20:35:53;8.90;86.80
38488;DHT22;57384;51.986;4.458;2024-01-30T20:38:41;8.90;86.80
38488;DHT22;57384;51.986;4.458;2024-01-30T20:41:34;8.90;86.80
38488;DHT22;57384;51.986;4.458;2024-01-30T20:44:20;8.90;86.80
38488;DHT22;57384;51.986;4.458;2024-01-30T20:47:17;8.80;86.70
38488;DHT22;57384;51.986;4.458;2024-01-30T20:50:04;8.80;86.80
38488;DHT22;57384;51.986;4.458;2024-01-30T20:52:50;8.80;86.80
38488;DHT22;57384;51.986;4.458;2024-01-30T20:55:34;8.80;87.40
38488;DHT22;57384;51.986;4.458;2024-01-30T20:58:18;8.80;86.80
38488;DHT22;57384;51.986;4.458;2024-01-30T22:08:52;8.30;86.90
38488;DHT22;57384;51.986;4.458;2024-01-30T22:11:36;8.30;86.90
38488;DHT22;57384;51.986;4.458;2024-01-30T22:14:23;8.30;86.80
38488;DHT22;57384;51.986;4.458;2024-01-30T22:17:15;8.30;86.80
38488;DHT22;57384;51.986;4.458;2024-01-30T22:19:59;8.30;86.90
38488;DHT22;57384;51.986;4.458;2024-01-30T22:22:45;8.30;86.80
38488;DHT22;57384;51.986;4.458;2024-01-30T22:25:30;8.20;86.80
38488;DHT22;57384;51.986;4.458;2024-01-30T22:28:17;8.20;86.80
38488;DHT22;57384;51.986;4.458;2024-01-30T22:31:02;8.20;86.80
38488;DHT22;57384;51.986;4.458;2024-01-30T22:33:47;8.20;86.80
38488;DHT22;57384;51.986;4.458;2024-01-30T22:36:32;8.10;86.70
38488;DHT22;57384;51.986;4.458;2024-01-30T22:39:16;8.10;86.80
38488;DHT22;57384;51.986;4.458;2024-01-30T22:42:02;8.10;86.80
38488;DHT22;57384;51.986;4.458;2024-01-30T22:44:48;8.10;86.80
38488;DHT22;57384;51.986;4.458;2024-01-30T23:38:17;7.80;86.80
